Time;durP1;ratioP1;P1;durP2;ratioP2;P2;SDS_P1;SDS_P2;PMS_P1;PMS_P2;Temp;Humidity;BMP_temperature;BMP_pressure;BME280_temperature;BME280_humidity;BME280_pressure;Samples;Min_cycle;Max_cycle;Signal;HPM_P1;HPM_P2
2022/10/26 00:00:41;;;;;;;13.00;7.10;;;22.00;73.40;;;;;;213595;1284;22488;-57
2022/10/26 00:06:15;;;;;;;10.70;6.50;;;22.00;73.70;;;;;;213221;1281;22480;-56
2022/10/26 00:11:21;;;;;;;11.90;7.00;;;22.00;73.40;;;;;;213552;1302;22648;-56
2022/10/26 00:16:26;;;;;;;11.00;6.80;;;21.90;73.30;;;;;;213484;1286;25375;-57
2022/10/26 00:21:30;;;;;;;14.00;7.20;;;21.90;73.10;;;;;;213622;1280;25303;-56
2022/10/26 00:26:33;;;;;;;11.80;6.20;;;21.90;73.20;;;;;;213559;1288;22613;-57
2022/10/26 00:31:40;;;;;;;11.70;6.10;;;21.90;73.20;;;;;;213449;1288;24278;-55
2022/10/26 00:36:43;;;;;;;9.70;6.00;;;21.90;73.20;;;;;;213641;1288;23888;-54
2022/10/26 00:42:14;;;;;;;11.20;7.00;;;21.90;73.10;;;;;;213615;1288;23359;-56
2022/10/26 00:47:38;;;;;;;10.00;5.80;;;21.90;73.20;;;;;;213570;1309;24261;-57
2022/10/26 00:52:42;;;;;;;9.90;6.30;;;21.80;73.10;;;;;;213601;1287;22493;-56
2022/10/26 00:57:48;;;;;;;8.60;6.10;;;21.80;73.40;;;;;;213452;1281;22500;-55
2022/10/26 01:02:56;;;;;;;11.40;6.30;;;21.80;73.50;;;;;;213525;1310;22525;-55
2022/10/26 01:08:01;;;;;;;9.80;6.10;;;21.80;73.10;;;;;;213619;1294;23861;-56
2022/10/26 01:13:05;;;;;;;9.40;6.30;;;21.80;73.00;;;;;;213665;1283;23871;-56
2022/10/26 01:18:14;;;;;;;8.50;5.20;;;21.80;73.10;;;;;;213644;1291;22467;-56
2022/10/26 01:23:31;;;;;;;10.00;6.20;;;21.70;73.30;;;;;;213387;1293;22482;-55
2022/10/26 01:28:55;;;;;;;11.00;6.20;;;21.70;73.00;;;;;;213548;1288;22481;-57
2022/10/26 01:34:13;;;;;;;10.00;6.20;;;21.70;73.00;;;;;;213726;1283;22814;-56
2022/10/26 01:39:41;;;;;;;9.60;5.90;;;21.70;72.90;;;;;;213573;1281;25664;-57
2022/10/26 01:44:51;;;;;;;8.40;5.40;;;21.70;72.80;;;;;;213527;1280;26554;-58
2022/10/26 01:50:00;;;;;;;9.60;5.80;;;21.70;72.90;;;;;;213617;1284;24749;-57
2022/10/26 01:55:46;;;;;;;8.10;4.80;;;21.60;73.00;;;;;;213713;1281;22733;-57
2022/10/26 02:01:10;;;;;;;8.80;5.50;;;21.70;73.00;;;;;;213634;1283;25362;-56
2022/10/26 02:06:34;;;;;;;9.60;6.10;;;21.60;73.00;;;;;;213505;1281;26552;-56
2022/10/26 02:11:47;;;;;;;9.60;5.20;;;21.60;72.90;;;;;;213533;1290;24243;-57
2022/10/26 02:16:55;;;;;;;9.60;5.50;;;21.60;72.90;;;;;;213638;1294;24224;-57
2022/10/26 02:22:22;;;;;;;7.10;5.40;;;21.60;72.90;;;;;;213548;1286;22461;-56
2022/10/26 02:27:34;;;;;;;9.40;5.50;;;21.60;72.80;;;;;;213594;1280;24257;-56
2022/10/26 02:32:42;;;;;;;8.40;5.80;;;21.60;72.80;;;;;;213714;1286;26446;-56
2022/10/26 02:37:47;;;;;;;8.80;5.70;;;21.50;72.90;;;;;;213528;1287;22649;-57
2022/10/26 02:42:54;;;;;;;7.30;5.10;;;21.50;72.80;;;;;;213592;1280;23059;-56
2022/10/26 02:47:58;;;;;;;8.20;5.30;;;21.50;72.80;;;;;;213481;1280;22741;-58
2022/10/26 02:53:16;;;;;;;8.50;5.30;;;21.50;72.80;;;;;;213646;1280;22717;-57
2022/10/26 02:58:26;;;;;;;8.80;5.90;;;21.50;72.80;;;;;;213192;1288;22482;-57
2022/10/26 03:03:30;;;;;;;8.00;5.00;;;21.50;72.80;;;;;;213461;1281;23148;-57
2022/10/26 03:08:33;;;;;;;10.00;5.80;;;21.50;72.70;;;;;;213553;1287;26538;-56
2022/10/26 03:13:37;;;;;;;9.20;5.30;;;21.40;72.70;;;;;;213706;1286;22539;-57
2022/10/26 03:18:40;;;;;;;7.60;5.20;;;21.40;73.10;;;;;;213470;1284;22611;-56
2022/10/26 03:23:46;;;;;;;7.50;5.20;;;21.40;72.40;;;;;;213513;1288;22656;-56
2022/10/26 03:28:52;;;;;;;7.70;4.90;;;21.40;73.10;;;;;;213666;1288;25336;-57
2022/10/26 03:33:55;;;;;;;8.40;5.40;;;21.40;72.80;;;;;;213505;1280;24221;-57
2022/10/26 03:38:59;;;;;;;7.80;5.50;;;21.40;72.70;;;;;;213319;1293;22550;-57
2022/10/26 03:44:03;;;;;;;8.10;5.20;;;21.40;73.10;;;;;;213508;1280;25508;-58
2022/10/26 03:49:06;;;;;;;9.40;5.30;;;21.40;72.60;;;;;;213493;1297;24246;-57
2022/10/26 03:54:10;;;;;;;7.00;4.90;;;21.30;72.60;;;;;;213410;1280;22479;-58
2022/10/26 03:59:13;;;;;;;7.10;4.80;;;21.30;73.00;;;;;;213435;1284;24221;-56
2022/10/26 04:04:17;;;;;;;16.40;4.60;;;21.30;72.60;;;;;;213643;1281;24353;-57
2022/10/26 04:09:20;;;;;;;8.50;4.60;;;21.30;72.60;;;;;;213549;1280;25369;-57
2022/10/26 04:14:24;;;;;;;9.00;5.60;;;21.30;72.70;;;;;;213732;1280;25503;-57
2022/10/26 04:19:27;;;;;;;7.40;4.40;;;21.30;72.70;;;;;;213625;1288;22482;-57
2022/10/26 04:24:31;;;;;;;7.10;4.50;;;21.30;72.70;;;;;;213472;1302;26629;-57
2022/10/26 04:29:34;;;;;;;6.00;4.10;;;21.20;72.60;;;;;;213455;1305;22570;-58
2022/10/26 04:34:38;;;;;;;6.60;4.60;;;21.20;72.70;;;;;;213787;1280;24245;-51
2022/10/26 04:39:41;;;;;;;6.10;4.10;;;21.20;72.70;;;;;;213371;1286;23028;-58
2022/10/26 04:44:48;;;;;;;7.40;4.80;;;21.20;72.70;;;;;;213802;1288;22683;-57
2022/10/26 04:49:54;;;;;;;6.10;4.60;;;21.20;72.70;;;;;;213623;1280;22535;-56
2022/10/26 04:54:57;;;;;;;7.00;4.60;;;21.20;72.60;;;;;;213608;1284;23189;-57
2022/10/26 05:00:02;;;;;;;5.60;4.00;;;21.20;72.60;;;;;;213511;1288;26597;-58
2022/10/26 05:05:06;;;;;;;7.60;4.40;;;21.20;72.60;;;;;;213578;1286;23374;-58
2022/10/26 05:10:14;;;;;;;6.90;4.20;;;21.10;72.50;;;;;;213636;1286;23884;-56
2022/10/26 05:15:18;;;;;;;7.90;4.50;;;21.10;72.50;;;;;;213576;1288;24053;-57
2022/10/26 05:20:28;;;;;;;6.70;4.30;;;21.20;72.60;;;;;;213612;1288;23813;-57
2022/10/26 05:25:34;;;;;;;9.90;4.70;;;21.10;72.60;;;;;;213500;1290;22472;-58
2022/10/26 05:30:39;;;;;;;6.80;4.50;;;21.10;73.10;;;;;;213606;1281;22547;-56
2022/10/26 05:35:43;;;;;;;5.90;4.20;;;21.10;73.10;;;;;;213513;1280;22519;-56
2022/10/26 05:40:48;;;;;;;8.10;4.10;;;21.10;72.80;;;;;;213664;1281;24242;-58
2022/10/26 05:45:53;;;;;;;9.40;4.50;;;21.10;72.70;;;;;;213562;1304;24248;-57
2022/10/26 05:51:00;;;;;;;7.90;4.20;;;21.00;72.70;;;;;;213456;1288;22771;-57
2022/10/26 05:56:32;;;;;;;7.90;3.80;;;21.00;72.90;;;;;;213670;1288;25624;-58
2022/10/26 06:02:00;;;;;;;7.60;4.20;;;21.00;73.00;;;;;;213511;1288;23897;-56
2022/10/26 06:07:12;;;;;;;7.30;4.60;;;21.00;73.20;;;;;;213505;1287;168947;-59
2022/10/26 06:12:15;;;;;;;;;;;21.00;73.30;;;;;;213601;1287;25535;-59
2022/10/26 06:17:35;;;;;;;7.30;4.00;;;21.00;73.30;;;;;;213628;1283;23909;-58
2022/10/26 06:23:00;;;;;;;9.70;3.90;;;21.00;73.40;;;;;;213469;1294;22621;-58
2022/10/26 06:28:12;;;;;;;6.40;4.20;;;21.00;73.20;;;;;;213490;1286;22491;-59
2022/10/26 06:33:16;;;;;;;6.80;4.20;;;21.10;73.30;;;;;;213567;1304;23916;-59
2022/10/26 06:38:34;;;;;;;13.30;4.00;;;21.10;72.70;;;;;;213437;1283;22709;-60
2022/10/26 06:43:38;;;;;;;11.50;4.60;;;21.20;72.80;;;;;;213630;1287;25548;-58
2022/10/26 06:49:00;;;;;;;8.50;3.70;;;21.20;72.90;;;;;;213647;1288;22480;-56
2022/10/26 06:54:30;;;;;;;18.70;5.00;;;21.20;72.80;;;;;;214742;1287;24293;-56
2022/10/26 06:59:54;;;;;;;8.20;4.40;;;21.20;72.20;;;;;;213316;1288;22480;-56
2022/10/26 07:04:58;;;;;;;6.60;4.70;;;21.20;72.00;;;;;;213556;1281;22497;-57
2022/10/26 07:10:02;;;;;;;13.60;5.30;;;21.20;72.10;;;;;;213571;1284;22499;-58
2022/10/26 07:15:07;;;;;;;9.90;4.50;;;21.10;71.50;;;;;;213589;1280;24169;-57
2022/10/26 07:20:18;;;;;;;7.40;4.70;;;21.10;71.70;;;;;;213563;1281;22747;-58
2022/10/26 07:25:23;;;;;;;9.00;4.60;;;21.20;71.60;;;;;;213500;1284;25641;-58
2022/10/26 07:30:28;;;;;;;6.70;4.20;;;21.20;71.40;;;;;;213517;1280;23379;-59
2022/10/26 07:35:32;;;;;;;7.10;4.10;;;21.30;71.10;;;;;;213778;1288;24276;-58
2022/10/26 07:40:37;;;;;;;7.60;3.90;;;21.30;71.10;;;;;;213520;1283;25410;-57
2022/10/26 07:45:40;;;;;;;6.70;4.30;;;21.30;71.10;;;;;;213612;1285;25409;-56
2022/10/26 07:50:44;;;;;;;8.20;5.30;;;21.20;70.90;;;;;;213720;1288;24257;-58
2022/10/26 07:55:54;;;;;;;8.30;4.70;;;21.20;70.90;;;;;;213448;1292;24357;-57
2022/10/26 08:01:07;;;;;;;7.10;4.80;;;21.30;70.70;;;;;;213513;1288;22484;-57
2022/10/26 08:06:11;;;;;;;8.80;5.20;;;21.30;71.00;;;;;;213533;1288;22478;-57
2022/10/26 08:11:15;;;;;;;7.70;4.70;;;21.30;70.90;;;;;;213739;1286;23128;-58
2022/10/26 08:16:20;;;;;;;9.70;5.10;;;21.40;70.40;;;;;;213591;1287;22791;-58
2022/10/26 08:21:23;;;;;;;9.00;4.20;;;21.40;70.20;;;;;;213518;1286;22480;-57
2022/10/26 08:26:42;;;;;;;10.10;5.00;;;21.40;70.20;;;;;;213403;1283;23856;-57
2022/10/26 08:31:47;;;;;;;6.80;4.40;;;21.40;70.30;;;;;;213570;1288;23890;-58
2022/10/26 08:36:51;;;;;;;7.10;4.50;;;21.40;70.20;;;;;;213552;1288;23747;-57
2022/10/26 08:42:12;;;;;;;6.60;4.40;;;21.40;70.10;;;;;;213635;1291;24031;-57
2022/10/26 08:47:27;;;;;;;7.90;4.10;;;21.50;70.40;;;;;;213672;1284;22600;-57
2022/10/26 08:52:44;;;;;;;7.40;4.40;;;21.60;70.20;;;;;;213643;1286;23840;-58
2022/10/26 08:57:48;;;;;;;6.80;4.60;;;21.70;69.40;;;;;;213594;1284;24224;-56
2022/10/26 09:02:53;;;;;;;6.70;4.40;;;21.70;69.30;;;;;;213731;1288;22719;-56
2022/10/26 09:08:10;;;;;;;6.00;4.40;;;21.70;69.70;;;;;;213607;1288;22573;-56
2022/10/26 09:13:16;;;;;;;6.30;4.10;;;21.80;69.20;;;;;;213547;1286;22491;-57
2022/10/26 09:18:53;;;;;;;6.40;4.10;;;21.70;69.20;;;;;;213669;1283;26490;-56
2022/10/26 09:24:32;;;;;;;5.60;4.10;;;21.70;69.20;;;;;;213525;1286;22568;-57
2022/10/26 09:29:41;;;;;;;8.40;4.50;;;21.80;69.20;;;;;;213383;1288;25439;-58
2022/10/26 09:34:56;;;;;;;7.90;4.50;;;21.80;69.10;;;;;;213535;1303;22465;-57
2022/10/26 09:40:10;;;;;;;9.40;3.80;;;21.90;70.10;;;;;;213601;1308;25526;-57
2022/10/26 09:45:50;;;;;;;6.40;4.00;;;21.90;70.30;;;;;;213750;1288;23048;-58
2022/10/26 09:50:55;;;;;;;4.30;3.70;;;21.90;70.10;;;;;;213171;1285;22561;-56
2022/10/26 09:56:10;;;;;;;9.00;4.80;;;22.00;70.50;;;;;;213479;1294;22486;-58
2022/10/26 10:01:40;;;;;;;12.10;4.80;;;22.10;69.90;;;;;;213609;1284;24355;-57
2022/10/26 10:06:47;;;;;;;7.80;4.50;;;22.20;69.00;;;;;;213562;1294;22863;-57
2022/10/26 10:11:56;;;;;;;8.20;4.80;;;22.30;68.80;;;;;;213435;1288;22477;-58
2022/10/26 10:17:07;;;;;;;9.60;4.20;;;22.30;67.00;;;;;;213550;1296;22616;-58
2022/10/26 10:22:21;;;;;;;7.20;3.50;;;22.30;65.40;;;;;;213434;1300;22532;-59
2022/10/26 10:27:25;;;;;;;5.40;3.10;;;22.30;65.40;;;;;;213619;1288;24296;-58
2022/10/26 10:32:31;;;;;;;6.80;3.90;;;22.40;65.50;;;;;;213495;1288;22640;-58
2022/10/26 10:37:44;;;;;;;6.90;3.20;;;22.40;65.70;;;;;;213411;1288;24266;-57
2022/10/26 10:42:50;;;;;;;4.90;3.50;;;22.50;65.80;;;;;;213570;1293;22988;-58
2022/10/26 10:48:11;;;;;;;5.50;3.90;;;22.60;66.20;;;;;;213562;1288;22486;-58
2022/10/26 10:53:36;;;;;;;6.00;3.70;;;22.60;66.20;;;;;;213577;1288;22476;-57
2022/10/26 10:59:11;;;;;;;5.20;3.10;;;22.70;66.30;;;;;;213642;1283;25538;-56
2022/10/26 11:04:39;;;;;;;5.80;3.30;;;22.80;65.70;;;;;;213510;1280;24062;-58
2022/10/26 11:09:45;;;;;;;5.30;3.20;;;22.80;65.70;;;;;;213486;1284;24246;-58
2022/10/26 11:15:15;;;;;;;5.60;3.50;;;22.90;65.90;;;;;;213636;1287;25419;-57
2022/10/26 11:20:23;;;;;;;4.70;3.00;;;22.90;65.70;;;;;;213549;1286;25288;-60
2022/10/26 11:25:33;;;;;;;5.00;2.90;;;22.90;65.80;;;;;;213617;1291;25331;-57
2022/10/26 11:30:45;;;;;;;6.30;3.40;;;23.00;65.70;;;;;;213603;1291;22864;-58
2022/10/26 11:36:04;;;;;;;6.60;3.80;;;23.00;65.60;;;;;;213539;1288;26566;-56
2022/10/26 11:41:28;;;;;;;5.10;3.20;;;23.00;65.70;;;;;;213513;1290;25639;-59
2022/10/26 11:46:37;;;;;;;4.60;3.20;;;23.00;65.60;;;;;;213494;1288;24086;-59
2022/10/26 11:52:06;;;;;;;4.60;3.10;;;23.10;65.60;;;;;;213723;1284;25250;-59
2022/10/26 11:57:11;;;;;;;3.50;2.70;;;23.10;65.20;;;;;;213529;1286;22490;-57
2022/10/26 12:02:24;;;;;;;6.00;3.40;;;23.10;65.20;;;;;;213723;1291;25469;-59
2022/10/26 12:07:31;;;;;;;5.60;2.80;;;23.20;64.90;;;;;;213486;1296;22719;-56
2022/10/26 12:12:49;;;;;;;5.60;3.10;;;23.20;65.00;;;;;;213528;1288;22481;-56
2022/10/26 12:18:18;;;;;;;5.40;3.00;;;23.20;65.00;;;;;;213486;1286;24803;-58
2022/10/26 12:23:36;;;;;;;4.60;3.20;;;23.20;65.40;;;;;;213517;1292;22514;-58
2022/10/26 12:29:02;;;;;;;7.00;2.60;;;23.20;65.50;;;;;;213525;1291;24317;-58
2022/10/26 12:34:13;;;;;;;3.60;2.70;;;23.30;65.30;;;;;;213626;1299;25634;-56
2022/10/26 12:39:27;;;;;;;4.20;2.80;;;23.30;65.10;;;;;;213652;1282;23665;-58
2022/10/26 12:44:44;;;;;;;3.90;2.70;;;23.30;65.00;;;;;;213463;1284;24036;-58
2022/10/26 12:49:58;;;;;;;4.00;2.80;;;23.40;65.10;;;;;;213775;1283;22722;-57
2022/10/26 12:55:11;;;;;;;5.20;2.80;;;23.40;64.90;;;;;;213599;1291;22480;-57
2022/10/26 13:00:20;;;;;;;5.00;3.00;;;23.40;64.70;;;;;;213648;1283;24779;-58
2022/10/26 13:06:01;;;;;;;3.70;2.70;;;23.50;64.80;;;;;;213888;1284;26756;-59
2022/10/26 13:11:11;;;;;;;;;;;23.40;64.80;;;;;;213565;1294;24153;-57
2022/10/26 13:16:16;;;;;;;3.20;2.30;;;23.40;64.80;;;;;;213698;1291;24260;-57
2022/10/26 13:21:21;;;;;;;5.70;2.60;;;23.40;65.00;;;;;;213588;1292;24275;-57
2022/10/26 13:26:27;;;;;;;4.00;2.40;;;23.40;64.80;;;;;;213812;1291;25273;-59
2022/10/26 13:31:30;;;;;;;3.90;2.30;;;23.40;64.80;;;;;;213615;1294;23977;-56
2022/10/26 13:36:43;;;;;;;3.30;2.10;;;23.40;64.90;;;;;;213777;1294;24294;-57
2022/10/26 13:41:51;;;;;;;4.00;2.60;;;23.40;65.00;;;;;;213646;1297;24255;-57
2022/10/26 13:46:59;;;;;;;3.70;2.50;;;23.40;65.00;;;;;;213760;1291;22473;-57
2022/10/26 13:52:10;;;;;;;3.70;2.50;;;23.30;64.90;;;;;;213780;1288;22721;-57
2022/10/26 13:57:36;;;;;;;6.80;2.40;;;23.30;65.70;;;;;;213722;1291;22834;-58
2022/10/26 14:02:43;;;;;;;3.50;2.20;;;23.30;65.60;;;;;;213580;1283;22701;-57
2022/10/26 14:07:48;;;;;;;3.10;2.00;;;23.30;65.10;;;;;;213397;1288;22866;-57
2022/10/26 14:12:59;;;;;;;3.70;2.60;;;23.30;65.20;;;;;;213715;1286;23061;-57
2022/10/26 14:18:27;;;;;;;3.80;2.50;;;23.20;65.40;;;;;;213730;1293;25225;-58
2022/10/26 14:23:57;;;;;;;4.70;2.40;;;23.20;65.40;;;;;;213588;1281;22663;-58
2022/10/26 14:29:00;;;;;;;3.20;2.30;;;23.10;65.40;;;;;;213436;1286;22491;-57
2022/10/26 14:34:08;;;;;;;5.00;2.40;;;23.10;65.90;;;;;;213562;1291;24245;-58
2022/10/26 14:39:22;;;;;;;4.10;2.00;;;23.00;65.50;;;;;;213673;1284;23908;-56
2022/10/26 14:44:25;;;;;;;;;;;23.00;65.60;;;;;;213540;1283;23215;-55
2022/10/26 14:49:29;;;;;;;2.90;1.90;;;23.00;65.60;;;;;;213592;1288;24286;-58
2022/10/26 14:54:33;;;;;;;2.90;2.10;;;22.90;65.60;;;;;;213534;1289;22732;-57
2022/10/26 14:59:41;;;;;;;5.70;2.50;;;22.90;65.70;;;;;;213662;1288;22480;-61
2022/10/26 15:05:02;;;;;;;5.80;2.50;;;22.90;65.80;;;;;;213493;1280;25534;-55
2022/10/26 15:10:39;;;;;;;4.70;2.50;;;22.90;65.90;;;;;;213424;1296;24343;-54
2022/10/26 15:15:52;;;;;;;3.90;2.50;;;22.90;66.10;;;;;;213303;1284;22718;-56
2022/10/26 15:21:50;;;;;;;7.50;2.30;;;22.90;66.30;;;;;;213132;1288;22978;-58
2022/10/26 15:26:56;;;;;;;6.40;2.50;;;22.80;66.50;;;;;;213343;1288;22707;-57
2022/10/26 15:32:04;;;;;;;6.70;2.80;;;22.80;65.90;;;;;;213239;1281;25896;-56
2022/10/26 15:37:19;;;;;;;6.20;2.50;;;22.70;64.90;;;;;;213376;1287;22702;-59
2022/10/26 15:42:25;;;;;;;5.90;2.80;;;22.70;65.00;;;;;;213233;1283;25428;-58
2022/10/26 15:47:32;;;;;;;4.90;2.30;;;22.60;64.70;;;;;;213340;1286;22652;-57
2022/10/26 15:52:40;;;;;;;5.90;2.70;;;22.60;64.60;;;;;;213409;1288;22488;-59
2022/10/26 15:58:08;;;;;;;4.90;2.10;;;22.60;64.50;;;;;;213328;1287;25311;-58
2022/10/26 16:03:21;;;;;;;5.40;2.40;;;22.60;65.50;;;;;;213565;1284;23901;-56
2022/10/26 16:08:30;;;;;;;11.20;3.00;;;22.60;65.80;;;;;;213367;1292;24245;-56
2022/10/26 16:13:35;;;;;;;8.20;2.90;;;22.60;65.80;;;;;;213376;1286;22594;-56
2022/10/26 16:18:41;;;;;;;13.80;3.30;;;22.60;65.70;;;;;;213431;1287;25554;-57
2022/10/26 16:23:48;;;;;;;11.10;3.10;;;22.60;65.50;;;;;;213674;1297;24233;-55
2022/10/26 16:28:52;;;;;;;11.20;3.70;;;22.70;66.10;;;;;;213462;1284;22736;-55
2022/10/26 16:33:57;;;;;;;9.20;4.50;;;22.60;66.60;;;;;;213416;1288;22493;-57
2022/10/26 16:39:11;;;;;;;14.00;5.00;;;22.60;66.30;;;;;;213399;1291;24247;-57
2022/10/26 16:44:14;;;;;;;10.00;4.60;;;22.60;66.50;;;;;;213612;1288;26716;-56
2022/10/26 16:49:18;;;;;;;13.30;5.10;;;22.60;66.40;;;;;;213434;1286;22481;-55
2022/10/26 16:54:22;;;;;;;12.10;5.10;;;22.60;66.50;;;;;;213558;1283;22560;-56
2022/10/26 16:59:33;;;;;;;10.20;5.00;;;22.60;66.90;;;;;;213509;1283;24863;-54
2022/10/26 17:04:36;;;;;;;11.80;4.80;;;22.60;66.60;;;;;;213485;1288;24364;-58
2022/10/26 17:09:40;;;;;;;10.30;4.40;;;22.70;66.70;;;;;;213387;1288;22633;-57
2022/10/26 17:14:43;;;;;;;12.40;4.50;;;22.60;66.50;;;;;;213605;1284;22529;-57
2022/10/26 17:19:49;;;;;;;10.10;4.40;;;22.60;67.00;;;;;;213489;1287;24226;-58
2022/10/26 17:24:54;;;;;;;12.80;5.20;;;22.60;66.50;;;;;;213377;1291;22501;-56
2022/10/26 17:30:09;;;;;;;9.30;4.50;;;22.60;66.90;;;;;;213654;1283;24361;-58
2022/10/26 17:35:15;;;;;;;10.40;4.40;;;22.50;66.40;;;;;;213690;1284;25329;-59
2022/10/26 17:40:19;;;;;;;18.30;5.10;;;22.50;66.30;;;;;;213507;1303;24320;-59
2022/10/26 17:45:22;;;;;;;10.00;5.30;;;22.50;66.20;;;;;;213540;1289;22492;-57
2022/10/26 17:50:26;;;;;;;14.50;5.70;;;22.50;66.40;;;;;;213629;1287;22471;-56
2022/10/26 17:55:31;;;;;;;9.60;5.20;;;22.50;66.90;;;;;;213728;1288;24263;-56
2022/10/26 18:00:38;;;;;;;17.30;4.60;;;22.50;67.00;;;;;;213258;1286;23856;-57
2022/10/26 18:05:48;;;;;;;17.30;4.60;;;22.50;66.90;;;;;;208980;1280;6316890;-56
2022/10/26 18:10:57;;;;;;;18.10;7.30;;;22.60;67.70;;;;;;213353;1288;25652;-58
2022/10/26 18:16:10;;;;;;;20.70;6.10;;;22.60;67.10;;;;;;213313;1281;22546;-57
2022/10/26 18:21:14;;;;;;;12.90;5.40;;;22.50;66.90;;;;;;213518;1280;25400;-57
2022/10/26 18:26:21;;;;;;;16.10;6.40;;;22.60;67.20;;;;;;213585;1284;22719;-57
2022/10/26 18:31:25;;;;;;;14.40;5.90;;;22.60;67.00;;;;;;213552;1286;22659;-62
2022/10/26 18:36:33;;;;;;;13.10;5.90;;;22.50;67.50;;;;;;213397;1280;25410;-57
2022/10/26 18:41:43;;;;;;;16.30;6.20;;;22.60;67.40;;;;;;213464;1284;24238;-55
2022/10/26 18:46:50;;;;;;;14.60;6.40;;;22.50;67.40;;;;;;213363;1286;24347;-59
2022/10/26 18:51:55;;;;;;;18.80;7.00;;;22.50;67.50;;;;;;213503;1280;22558;-58
2022/10/26 18:56:58;;;;;;;15.50;7.70;;;22.50;67.50;;;;;;213662;1286;24295;-59
2022/10/26 19:02:05;;;;;;;15.60;6.70;;;22.40;67.40;;;;;;213404;1293;22945;-59
2022/10/26 19:07:14;;;;;;;11.70;7.00;;;22.40;67.50;;;;;;213637;1288;25438;-59
2022/10/26 19:12:43;;;;;;;19.20;7.80;;;22.40;67.50;;;;;;213569;1280;25556;-58
2022/10/26 19:18:09;;;;;;;16.20;7.70;;;22.30;67.50;;;;;;213440;1288;24243;-58
2022/10/26 19:23:20;;;;;;;19.60;7.60;;;22.40;67.40;;;;;;213494;1286;24255;-58
2022/10/26 19:28:26;;;;;;;17.40;7.60;;;22.30;67.40;;;;;;213724;1287;24205;-57
2022/10/26 19:33:41;;;;;;;14.80;7.50;;;22.30;67.50;;;;;;213392;1287;22808;-59
2022/10/26 19:38:49;;;;;;;25.90;7.90;;;22.30;67.50;;;;;;213519;1280;22496;-58
2022/10/26 19:43:58;;;;;;;21.60;7.50;;;22.30;68.00;;;;;;213525;1287;23901;-58
2022/10/26 19:49:03;;;;;;;18.30;7.50;;;22.30;69.50;;;;;;213590;1288;22634;-56
2022/10/26 19:54:17;;;;;;;17.30;7.50;;;22.30;69.90;;;;;;213421;1280;24205;-55
2022/10/26 19:59:34;;;;;;;19.10;8.60;;;22.30;69.80;;;;;;213423;1302;22477;-58
2022/10/26 20:04:44;;;;;;;15.90;7.60;;;22.30;69.80;;;;;;213645;1285;22484;-58
2022/10/26 20:10:01;;;;;;;18.30;8.00;;;22.30;69.90;;;;;;213332;1288;22509;-57
2022/10/26 20:15:23;;;;;;;16.80;8.00;;;22.30;70.00;;;;;;213608;1279;24254;-58
2022/10/26 20:20:32;;;;;;;18.40;7.20;;;22.30;70.00;;;;;;213418;1294;22470;-57
2022/10/26 20:25:54;;;;;;;14.20;8.00;;;22.20;70.40;;;;;;213588;1280;22607;-57
2022/10/26 20:31:04;;;;;;;18.70;9.10;;;22.20;70.10;;;;;;213554;1288;22481;-58
2022/10/26 20:36:22;;;;;;;20.40;9.30;;;22.20;70.10;;;;;;213589;1290;22522;-52
2022/10/26 20:41:41;;;;;;;16.50;9.20;;;22.20;69.90;;;;;;213457;1283;22491;-57
2022/10/26 20:46:56;;;;;;;15.60;8.00;;;22.20;69.80;;;;;;213340;1288;22553;-58
2022/10/26 20:52:20;;;;;;;14.10;8.80;;;22.10;69.30;;;;;;213441;1286;24243;-57
2022/10/26 20:57:54;;;;;;;17.50;8.60;;;22.10;69.80;;;;;;213412;1286;22673;-57
2022/10/26 21:03:12;;;;;;;15.30;8.80;;;22.00;69.70;;;;;;213422;1283;25335;-57
2022/10/26 21:08:21;;;;;;;16.70;8.90;;;22.00;69.80;;;;;;213387;1287;22568;-57
2022/10/26 21:13:35;;;;;;;14.30;8.90;;;22.00;69.90;;;;;;213530;1286;22533;-56
2022/10/26 21:18:59;;;;;;;15.70;8.40;;;22.00;69.70;;;;;;213582;1307;24250;-57
2022/10/26 21:24:19;;;;;;;14.80;8.10;;;22.00;69.70;;;;;;213685;1286;24278;-53
2022/10/26 21:29:34;;;;;;;16.10;8.70;;;22.00;69.70;;;;;;213463;1280;23793;-57
2022/10/26 21:34:44;;;;;;;15.80;8.20;;;22.00;70.00;;;;;;213434;1287;24241;-57
2022/10/26 21:39:50;;;;;;;13.70;8.40;;;21.90;70.00;;;;;;213540;1288;22521;-56
2022/10/26 21:44:55;;;;;;;14.70;8.70;;;21.90;70.10;;;;;;213533;1285;24323;-57
2022/10/26 21:49:58;;;;;;;20.30;7.90;;;21.90;70.20;;;;;;213538;1281;25209;-57
2022/10/26 21:55:05;;;;;;;18.60;8.60;;;21.90;70.40;;;;;;213698;1287;22693;-57
2022/10/26 22:00:17;;;;;;;18.20;8.10;;;21.90;74.30;;;;;;213440;1291;25500;-58
2022/10/26 22:05:21;;;;;;;22.00;8.70;;;22.00;75.20;;;;;;213512;1280;22467;-56
2022/10/26 22:10:28;;;;;;;16.50;8.10;;;22.00;74.30;;;;;;213401;1286;22607;-57
2022/10/26 22:15:31;;;;;;;13.10;8.40;;;21.90;74.10;;;;;;213323;1284;22604;-58
2022/10/26 22:20:35;;;;;;;14.80;8.10;;;21.90;73.20;;;;;;213355;1281;23918;-58
2022/10/26 22:25:39;;;;;;;14.20;7.90;;;21.90;73.20;;;;;;213392;1281;26648;-57
2022/10/26 22:30:44;;;;;;;12.50;8.10;;;22.00;72.90;;;;;;213330;1288;24276;-57
2022/10/26 22:35:49;;;;;;;13.90;8.40;;;21.90;72.80;;;;;;213296;1288;25599;-58
2022/10/26 22:40:54;;;;;;;18.20;8.20;;;21.90;72.90;;;;;;213452;1288;25402;-57
2022/10/26 22:46:05;;;;;;;14.10;8.30;;;21.90;72.90;;;;;;213346;1280;23877;-58
2022/10/26 22:51:14;;;;;;;13.50;7.40;;;21.80;72.90;;;;;;213279;1290;22481;-57
2022/10/26 22:56:19;;;;;;;13.90;8.00;;;21.80;72.90;;;;;;213214;1287;22771;-57
2022/10/26 23:01:25;;;;;;;13.60;8.40;;;21.80;72.70;;;;;;216432;1288;24247;-56
2022/10/26 23:06:36;;;;;;;12.70;7.70;;;21.80;72.60;;;;;;213347;1280;22524;-57
2022/10/26 23:11:39;;;;;;;13.70;8.30;;;21.80;72.50;;;;;;213502;1288;24249;-58
2022/10/26 23:16:43;;;;;;;11.60;8.30;;;21.80;72.80;;;;;;213311;1280;23860;-54
2022/10/26 23:21:46;;;;;;;11.50;7.60;;;21.80;72.90;;;;;;213431;1290;24364;-56
2022/10/26 23:26:50;;;;;;;9.80;7.00;;;21.80;72.80;;;;;;213662;1301;24368;-56
2022/10/26 23:31:54;;;;;;;11.90;7.50;;;21.80;72.60;;;;;;213690;1278;26476;-58
2022/10/26 23:36:58;;;;;;;15.40;8.60;;;21.70;72.70;;;;;;213448;1280;23856;-58
2022/10/26 23:42:02;;;;;;;12.80;7.80;;;21.70;72.70;;;;;;213496;1294;25658;-58
2022/10/26 23:47:05;;;;;;;10.50;7.50;;;21.70;72.70;;;;;;213683;1283;22522;-56
2022/10/26 23:52:09;;;;;;;12.10;8.00;;;21.70;72.60;;;;;;213471;1288;22627;-59
2022/10/26 23:57:13;;;;;;;12.40;7.60;;;21.70;73.00;;;;;;213530;1281;22477;-57
